Whidbey Island Naval Air Station, Ault Field, Airport Oak Harbor US
ICAO: KNUW
IATA: NUW
Category: Medium
Scheduled Services: No

Elevation: 47 ft
TransAlt. 18000 ft.

Airport Communications:
APP/DEP:118.2
ATIS:134.15
CLNC DEL:124.15
GND:121.75
BASE OPS:35.01
PMSV METRO:34.34
TWR:127.9

KNUW Zoom In..

If you have problems with the map follow the link
https://www.worldairports.se/pages/airport.php?
ICAO=KNUW

Runways:

(A) RW 07 length 8000 ft width 200 ft
---- / hdg 69

(B) RW 14 length 8001 ft width 200 ft
ILS 110.10 / hdg 137

(C) RW 25 length 8000 ft width 200 ft
---- / hdg 249

(D) RW 32 length 8001 ft width 200 ft
---- / hdg 317

Location; KNUW
Day. 19 / Time. 00.56 Zulu
* Altimeter: 30.24
* Temperature: 12° c. 53.6°f.
* Wind from: 260° Speed 03 kn.
Dewpoint: 09° c.
Visibility: 7 Statute Miles.
Clouds: Scattered 18000 ft.
Clouds: Broken 25000 ft.

KNUW 190056Z 26003KT 7SM SCT180 BKN250 12/09 A3024 RMK AO2 SLP238 T01220094 $


Wind From 260°
Speed 03 kn.

 
 
jpsmedia.com for Web Design worldairports.se 2018   terms of use